createdAt,value
2019-03-31T00:01:55.087Z,5.59
2019-03-31T00:04:28.131Z,5.58
2019-03-31T00:07:00.806Z,5.58
2019-03-31T00:09:33.308Z,5.59
2019-03-31T00:12:06.111Z,5.58
2019-03-31T00:14:38.571Z,5.55
2019-03-31T00:17:11.036Z,5.52
2019-03-31T00:19:43.626Z,5.50
2019-03-31T00:22:16.101Z,5.46
2019-03-31T00:24:49.030Z,5.44
2019-03-31T00:27:21.495Z,5.39
2019-03-31T00:29:54.171Z,5.37
2019-03-31T00:32:26.616Z,5.33
2019-03-31T00:34:59.147Z,5.31
2019-03-31T00:37:31.761Z,5.31
2019-03-31T00:40:05.727Z,5.33
2019-03-31T00:42:38.334Z,5.34
2019-03-31T00:45:10.796Z,5.34
2019-03-31T00:47:43.422Z,5.35
2019-03-31T00:50:15.876Z,5.33
2019-03-31T00:52:48.375Z,5.31
2019-03-31T00:55:20.991Z,5.30
2019-03-31T00:57:53.386Z,5.30
2019-03-31T01:00:43.951Z,5.29
2019-03-31T01:03:19.194Z,5.27
2019-03-31T01:05:51.738Z,5.26
2019-03-31T01:08:25.210Z,5.26
2019-03-31T01:10:57.896Z,5.25
2019-03-31T01:13:30.341Z,5.26
2019-03-31T01:16:03.126Z,5.25
2019-03-31T01:18:36.665Z,5.26
2019-03-31T01:21:09.119Z,5.29
2019-03-31T01:23:41.786Z,5.31
2019-03-31T01:26:15.920Z,5.33
2019-03-31T01:28:48.519Z,5.34
2019-03-31T01:31:20.976Z,5.34
2019-03-31T01:33:53.445Z,5.33
2019-03-31T01:36:25.706Z,5.32
2019-03-31T01:38:58.057Z,5.29
2019-03-31T01:41:30.506Z,5.27
2019-03-31T01:44:02.931Z,5.25
2019-03-31T01:46:35.316Z,5.21
2019-03-31T01:49:08.151Z,5.17
2019-03-31T01:51:40.471Z,5.12
2019-03-31T01:54:12.786Z,5.08
2019-03-31T01:56:45.317Z,5.05
2019-03-31T01:59:17.821Z,5.02
2019-03-31T02:02:03.322Z,5.02
2019-03-31T02:04:25.051Z,5.03
2019-03-31T02:06:57.545Z,5.02
2019-03-31T02:09:30.302Z,5.05
2019-03-31T02:12:02.883Z,5.06
2019-03-31T02:14:36.191Z,5.11
2019-03-31T02:17:08.696Z,5.14
2019-03-31T02:19:41.071Z,5.15
2019-03-31T02:22:14.201Z,5.17
2019-03-31T02:24:47.561Z,5.17
2019-03-31T02:27:20.442Z,5.15
2019-03-31T02:29:53.041Z,5.13
2019-03-31T02:32:25.477Z,5.11
2019-03-31T02:34:59.208Z,5.08
2019-03-31T02:37:32.692Z,5.09
2019-03-31T02:40:07.282Z,5.12
2019-03-31T02:42:39.768Z,5.17
2019-03-31T02:45:12.359Z,5.23
2019-03-31T02:47:45.117Z,5.30
2019-03-31T02:50:45.678Z,5.39
2019-03-31T02:53:18.820Z,5.48
2019-03-31T02:55:51.212Z,5.58
2019-03-31T02:58:23.942Z,5.67
2019-03-31T03:00:56.732Z,5.75
2019-03-31T03:03:30.350Z,5.83
2019-03-31T03:06:02.975Z,5.90
2019-03-31T03:08:35.307Z,5.97
2019-03-31T03:11:07.926Z,6.05
2019-03-31T03:13:40.265Z,6.12
2019-03-31T03:16:17.931Z,6.21
2019-03-31T03:18:50.477Z,6.30
2019-03-31T03:21:24.587Z,6.41
2019-03-31T03:23:57.858Z,6.50
2019-03-31T03:26:30.754Z,6.58
2019-03-31T03:29:03.015Z,6.64
2019-03-31T03:31:36.537Z,6.69
2019-03-31T03:34:08.903Z,6.75
2019-03-31T03:36:43.623Z,6.82
2019-03-31T03:39:15.508Z,6.85
2019-03-31T03:41:48.667Z,6.88
2019-03-31T03:44:21.229Z,6.89
2019-03-31T03:46:53.807Z,6.91
2019-03-31T03:49:26.322Z,6.94
2019-03-31T03:51:58.661Z,6.96
2019-03-31T03:54:31.011Z,6.97
2019-03-31T03:57:03.703Z,7.02
2019-03-31T03:59:36.086Z,7.06
2019-03-31T04:02:08.627Z,7.11
2019-03-31T04:04:41.037Z,7.17
2019-03-31T04:07:13.508Z,7.22
2019-03-31T04:09:46.181Z,7.26
2019-03-31T04:12:18.595Z,7.30
2019-03-31T04:14:50.896Z,7.34
2019-03-31T04:17:23.131Z,7.35
2019-03-31T04:19:55.781Z,7.35
2019-03-31T04:22:27.956Z,7.35
2019-03-31T04:25:00.720Z,7.35
2019-03-31T04:27:33.261Z,7.36
2019-03-31T04:30:06.136Z,7.39
2019-03-31T04:32:39.198Z,7.41
2019-03-31T04:35:11.755Z,7.43
2019-03-31T04:37:44.414Z,7.46
2019-03-31T04:40:17.027Z,7.50
2019-03-31T04:42:49.450Z,7.54
2019-03-31T04:45:22.812Z,7.59
2019-03-31T04:47:55.248Z,7.62
2019-03-31T04:50:28.237Z,7.59
2019-03-31T04:53:02.191Z,7.68
2019-03-31T04:55:34.676Z,7.73
2019-03-31T04:58:07.389Z,7.80
2019-03-31T05:00:39.866Z,7.85
2019-03-31T05:03:13.194Z,7.87
2019-03-31T05:05:45.718Z,7.94
2019-03-31T05:08:18.336Z,7.99
2019-03-31T05:10:50.981Z,8.06
2019-03-31T05:13:23.286Z,8.06
2019-03-31T05:15:55.844Z,8.15
2019-03-31T05:18:28.557Z,8.15
2019-03-31T05:21:01.187Z,8.25
2019-03-31T05:23:33.681Z,8.28
2019-03-31T05:26:06.421Z,8.32
2019-03-31T05:28:38.781Z,8.44
2019-03-31T05:31:11.190Z,8.47
2019-03-31T05:33:43.771Z,8.46
2019-03-31T05:36:16.012Z,8.55
2019-03-31T05:38:48.531Z,9.01
2019-03-31T05:41:20.993Z,9.01
2019-03-31T05:44:05.135Z,9.10
2019-03-31T05:46:27.376Z,9.10
2019-03-31T05:48:59.688Z,9.11
2019-03-31T05:51:32.206Z,9.18
2019-03-31T05:54:04.731Z,9.18
2019-03-31T05:56:36.986Z,9.25
2019-03-31T05:59:09.539Z,9.25
2019-03-31T06:01:42.026Z,9.51
2019-03-31T06:04:14.682Z,9.55
2019-03-31T06:06:47.151Z,9.55
2019-03-31T06:09:19.766Z,9.58
2019-03-31T06:11:53.496Z,9.70
2019-03-31T06:14:26.406Z,9.83
2019-03-31T06:16:58.950Z,9.99
2019-03-31T06:19:31.506Z,10.04
2019-03-31T06:22:04.045Z,10.19
2019-03-31T06:24:36.566Z,10.19
2019-03-31T06:27:09.171Z,10.31
2019-03-31T06:29:41.475Z,10.40
2019-03-31T06:32:14.396Z,10.44
2019-03-31T06:34:47.998Z,10.49
2019-03-31T06:37:20.757Z,10.61
2019-03-31T06:39:53.257Z,10.72
2019-03-31T06:42:28.032Z,10.77
2019-03-31T06:45:00.911Z,10.70
2019-03-31T06:47:33.476Z,10.84
2019-03-31T06:50:08.073Z,11.22
2019-03-31T06:52:40.737Z,11.85
2019-03-31T06:55:13.179Z,12.24
2019-03-31T06:57:45.686Z,12.44
2019-03-31T07:00:18.369Z,12.95
2019-03-31T07:02:50.891Z,13.43
2019-03-31T07:05:23.451Z,13.34
2019-03-31T07:07:56.262Z,12.86
2019-03-31T07:10:28.673Z,12.46
2019-03-31T07:13:01.147Z,12.81
2019-03-31T07:15:33.961Z,12.94
2019-03-31T07:18:06.456Z,12.77
2019-03-31T07:20:39.241Z,12.81
2019-03-31T07:23:11.971Z,12.86
2019-03-31T07:25:44.546Z,12.88
2019-03-31T07:28:16.996Z,12.91
2019-03-31T07:30:49.457Z,12.77
2019-03-31T07:33:22.194Z,12.93
2019-03-31T07:35:54.921Z,13.06
2019-03-31T07:38:38.823Z,13.05
2019-03-31T07:41:12.511Z,12.94
2019-03-31T07:43:37.046Z,13.07
2019-03-31T07:46:09.606Z,13.19
2019-03-31T07:48:41.956Z,12.74
2019-03-31T07:51:14.439Z,12.82
2019-03-31T07:53:47.196Z,12.67
2019-03-31T07:56:19.731Z,12.85
2019-03-31T07:58:52.141Z,12.76
2019-03-31T08:01:28.556Z,12.64
2019-03-31T08:04:01.461Z,12.75
2019-03-31T08:06:34.260Z,12.91
2019-03-31T08:09:08.272Z,12.86
2019-03-31T08:11:40.737Z,12.84
2019-03-31T08:14:13.343Z,13.25
2019-03-31T08:16:45.648Z,13.57
2019-03-31T08:19:20.811Z,13.54
2019-03-31T08:21:52.581Z,13.75
2019-03-31T08:24:25.031Z,13.69
2019-03-31T08:26:57.708Z,14.03
2019-03-31T08:29:30.062Z,14.28
2019-03-31T08:32:02.837Z,14.56
2019-03-31T08:34:35.606Z,14.49
2019-03-31T08:37:07.976Z,14.21
2019-03-31T08:39:40.583Z,14.73
2019-03-31T08:42:13.121Z,14.77
2019-03-31T08:44:45.586Z,14.79
2019-03-31T08:47:18.146Z,14.87
2019-03-31T08:49:50.451Z,15.15
2019-03-31T08:52:22.922Z,15.36
2019-03-31T08:54:55.171Z,15.19
2019-03-31T08:57:27.815Z,14.17
2019-03-31T09:00:00.359Z,13.75
2019-03-31T09:02:34.606Z,13.89
2019-03-31T09:05:09.287Z,13.84
2019-03-31T09:07:42.220Z,13.84
2019-03-31T09:10:14.591Z,13.88
2019-03-31T09:12:48.673Z,13.41
2019-03-31T09:15:21.391Z,13.28
2019-03-31T09:17:54.468Z,12.70
2019-03-31T09:20:27.186Z,12.86
2019-03-31T09:22:59.846Z,13.09
2019-03-31T09:25:32.531Z,12.99
2019-03-31T09:28:05.171Z,12.69
2019-03-31T09:30:37.601Z,12.73
2019-03-31T09:33:10.207Z,13.05
2019-03-31T09:35:42.871Z,13.24
2019-03-31T09:38:15.477Z,13.32
2019-03-31T09:40:48.131Z,13.60
2019-03-31T09:43:20.781Z,13.54
2019-03-31T09:45:53.240Z,13.37
2019-03-31T09:48:26.149Z,13.07
2019-03-31T09:50:58.821Z,13.55
2019-03-31T09:53:31.411Z,14.29
2019-03-31T09:56:03.926Z,14.57
2019-03-31T09:58:36.741Z,14.38
2019-03-31T10:01:09.206Z,13.99
2019-03-31T10:03:41.814Z,13.94
2019-03-31T10:06:14.346Z,13.78
2019-03-31T10:08:46.933Z,13.14
2019-03-31T10:11:19.301Z,12.81
2019-03-31T10:13:51.877Z,13.10
2019-03-31T10:16:24.506Z,13.91
2019-03-31T10:18:56.986Z,14.14
2019-03-31T10:21:29.462Z,14.24
2019-03-31T10:24:01.961Z,14.03
2019-03-31T10:26:34.770Z,12.71
2019-03-31T10:29:07.307Z,12.68
2019-03-31T10:31:39.912Z,12.92
2019-03-31T10:34:12.377Z,12.84
2019-03-31T10:36:45.911Z,12.83
2019-03-31T10:39:18.856Z,12.85
2019-03-31T10:41:51.346Z,12.48
2019-03-31T10:44:24.327Z,12.73
2019-03-31T10:46:58.445Z,12.98
2019-03-31T10:49:31.205Z,13.11
2019-03-31T10:52:03.906Z,13.55
2019-03-31T10:54:36.266Z,13.51
2019-03-31T10:57:08.726Z,13.20
2019-03-31T10:59:42.548Z,13.68
2019-03-31T11:02:15.186Z,13.61
2019-03-31T11:04:47.421Z,13.70
2019-03-31T11:07:19.892Z,13.49
2019-03-31T11:09:52.827Z,13.45
2019-03-31T11:12:25.696Z,13.56
2019-03-31T11:14:58.171Z,13.98
2019-03-31T11:17:30.656Z,13.97
2019-03-31T11:20:03.446Z,14.43
2019-03-31T11:22:37.391Z,14.70
2019-03-31T11:25:20.313Z,14.38
2019-03-31T11:27:44.265Z,14.23
2019-03-31T11:30:16.625Z,14.20
2019-03-31T11:32:50.400Z,13.83
2019-03-31T11:35:22.946Z,13.74
2019-03-31T11:37:55.385Z,14.01
2019-03-31T11:40:29.230Z,14.18
2019-03-31T11:43:02.728Z,13.85
2019-03-31T11:45:35.465Z,13.72
2019-03-31T11:48:07.771Z,13.52
2019-03-31T11:50:40.407Z,13.55
2019-03-31T11:53:14.450Z,13.70
2019-03-31T11:55:47.032Z,13.70
2019-03-31T11:58:19.414Z,13.72
2019-03-31T12:00:53.857Z,14.05
2019-03-31T12:03:30.744Z,13.90
2019-03-31T12:06:02.451Z,13.95
2019-03-31T12:08:35.080Z,13.55
2019-03-31T12:11:07.641Z,13.33
2019-03-31T12:13:40.152Z,13.53
2019-03-31T12:16:12.756Z,13.35
2019-03-31T12:18:45.256Z,13.05
2019-03-31T12:21:18.541Z,13.40
2019-03-31T12:23:51.345Z,13.73
2019-03-31T12:26:23.747Z,13.49
2019-03-31T12:28:56.504Z,13.39
2019-03-31T12:31:29.556Z,13.16
2019-03-31T12:34:02.095Z,13.71
2019-03-31T12:36:35.280Z,13.99
2019-03-31T12:39:09.506Z,13.57
2019-03-31T12:41:42.036Z,13.01
2019-03-31T12:44:14.641Z,13.18
2019-03-31T12:46:47.210Z,13.13
2019-03-31T12:49:20.200Z,12.39
2019-03-31T12:51:55.111Z,12.20
2019-03-31T12:54:27.384Z,12.16
2019-03-31T12:56:59.851Z,12.01
2019-03-31T12:59:32.615Z,12.09
2019-03-31T13:02:04.915Z,12.34
2019-03-31T13:04:37.265Z,12.17
2019-03-31T13:07:09.515Z,12.17
2019-03-31T13:09:41.980Z,12.11
2019-03-31T13:12:14.590Z,12.28
2019-03-31T13:14:47.246Z,11.96
2019-03-31T13:17:19.757Z,11.67
2019-03-31T13:19:52.230Z,11.69
2019-03-31T13:22:24.967Z,12.17
2019-03-31T13:24:57.800Z,12.13
2019-03-31T13:27:30.047Z,12.12
2019-03-31T13:30:02.565Z,12.27
2019-03-31T13:32:35.306Z,12.24
2019-03-31T13:35:08.738Z,12.18
2019-03-31T13:37:41.502Z,12.20
2019-03-31T13:40:14.145Z,12.15
2019-03-31T13:42:47.961Z,12.41
2019-03-31T13:45:20.881Z,12.46
2019-03-31T13:47:53.036Z,12.28
2019-03-31T13:50:25.731Z,11.95
2019-03-31T13:52:58.383Z,12.13
2019-03-31T13:55:31.016Z,12.07
2019-03-31T13:58:04.962Z,12.07
2019-03-31T14:00:41.851Z,12.10
2019-03-31T14:03:14.417Z,12.03
2019-03-31T14:05:46.976Z,11.88
2019-03-31T14:08:25.978Z,11.81
2019-03-31T14:10:53.676Z,12.04
2019-03-31T14:13:26.461Z,12.18
2019-03-31T14:15:59.101Z,12.00
2019-03-31T14:18:31.427Z,12.06
2019-03-31T14:21:04.146Z,12.15
2019-03-31T14:23:36.607Z,12.25
2019-03-31T14:26:08.867Z,12.29
2019-03-31T14:28:41.392Z,12.34
2019-03-31T14:31:13.836Z,12.25
2019-03-31T14:33:46.662Z,12.33
2019-03-31T14:36:18.931Z,12.42
2019-03-31T14:38:51.481Z,12.52
2019-03-31T14:41:24.236Z,12.54
2019-03-31T14:43:57.228Z,12.33
2019-03-31T14:46:29.887Z,12.44
2019-03-31T14:49:02.754Z,12.37
2019-03-31T14:51:35.031Z,12.35
2019-03-31T14:54:07.270Z,12.36
2019-03-31T14:56:39.746Z,12.44
2019-03-31T14:59:12.218Z,12.59
2019-03-31T15:01:44.894Z,12.56
2019-03-31T15:04:17.437Z,12.52
2019-03-31T15:06:49.766Z,12.66
2019-03-31T15:09:22.442Z,12.74
2019-03-31T15:11:54.812Z,12.58
2019-03-31T15:14:27.567Z,12.48
2019-03-31T15:17:00.142Z,12.27
2019-03-31T15:19:33.603Z,12.23
2019-03-31T15:22:06.122Z,12.24
2019-03-31T15:24:38.422Z,12.16
2019-03-31T15:27:11.152Z,11.86
2019-03-31T15:29:44.452Z,11.87
2019-03-31T15:32:16.662Z,11.94
2019-03-31T15:34:49.256Z,11.85
2019-03-31T15:37:21.902Z,11.84
2019-03-31T15:39:54.701Z,11.90
2019-03-31T15:42:27.264Z,11.85
2019-03-31T15:45:01.016Z,11.93
2019-03-31T15:47:33.527Z,11.81
2019-03-31T15:50:07.761Z,11.70
2019-03-31T15:52:40.263Z,11.65
2019-03-31T15:55:13.448Z,11.49
2019-03-31T15:57:46.011Z,11.41
2019-03-31T16:00:18.436Z,11.25
2019-03-31T16:02:50.836Z,11.21
2019-03-31T16:05:23.487Z,11.21
2019-03-31T16:07:56.026Z,11.12
2019-03-31T16:10:28.627Z,11.10
2019-03-31T16:13:01.026Z,11.11
2019-03-31T16:15:33.774Z,11.10
2019-03-31T16:18:06.226Z,11.15
2019-03-31T16:20:38.771Z,11.14
2019-03-31T16:23:11.355Z,11.11
2019-03-31T16:25:45.571Z,11.09
2019-03-31T16:28:18.171Z,11.01
2019-03-31T16:30:50.746Z,11.01
2019-03-31T16:33:23.411Z,10.92
2019-03-31T16:35:55.926Z,10.84
2019-03-31T16:38:28.776Z,10.75
2019-03-31T16:41:01.306Z,10.71
2019-03-31T16:43:34.880Z,10.65
2019-03-31T16:46:07.181Z,10.50
2019-03-31T16:48:39.906Z,10.41
2019-03-31T16:51:12.361Z,10.33
2019-03-31T16:53:45.200Z,10.29
2019-03-31T16:56:17.707Z,10.22
2019-03-31T16:58:50.336Z,10.19
2019-03-31T17:01:23.086Z,10.06
2019-03-31T17:03:55.412Z,9.94
2019-03-31T17:06:27.572Z,9.79
2019-03-31T17:08:59.996Z,9.77
2019-03-31T17:11:32.446Z,9.64
2019-03-31T17:14:05.121Z,9.56
2019-03-31T17:16:37.320Z,9.52
2019-03-31T17:19:09.721Z,9.38
2019-03-31T17:21:41.988Z,9.33
2019-03-31T17:24:14.306Z,9.24
2019-03-31T17:26:46.881Z,9.17
2019-03-31T17:29:19.146Z,9.04
2019-03-31T17:31:51.451Z,9.01
2019-03-31T17:34:23.794Z,8.98
2019-03-31T17:36:56.391Z,8.86
2019-03-31T17:39:29.051Z,8.79
2019-03-31T17:42:01.573Z,8.79
2019-03-31T17:44:34.147Z,8.76
2019-03-31T17:47:06.689Z,8.68
2019-03-31T17:49:39.476Z,8.57
2019-03-31T17:52:12.311Z,8.48
2019-03-31T17:54:44.616Z,8.45
2019-03-31T17:57:17.347Z,8.31
2019-03-31T17:59:49.806Z,8.31
2019-03-31T18:02:22.191Z,8.22
2019-03-31T18:04:54.432Z,8.18
2019-03-31T18:07:27.121Z,8.14
2019-03-31T18:09:59.627Z,8.08
2019-03-31T18:12:32.691Z,8.02
2019-03-31T18:15:05.432Z,7.80
2019-03-31T18:17:37.851Z,7.80
2019-03-31T18:20:10.501Z,7.66
2019-03-31T18:22:43.111Z,7.60
2019-03-31T18:25:15.592Z,7.62
2019-03-31T18:27:48.141Z,7.59
2019-03-31T18:30:20.716Z,7.51
2019-03-31T18:32:53.481Z,7.44
2019-03-31T18:35:25.972Z,7.35
2019-03-31T18:37:58.506Z,7.31
2019-03-31T18:40:35.302Z,7.28
2019-03-31T18:43:05.067Z,7.23
2019-03-31T18:45:37.532Z,7.21
2019-03-31T18:48:10.396Z,7.14
2019-03-31T18:50:43.061Z,7.05
2019-03-31T18:53:17.441Z,7.02
2019-03-31T18:55:54.551Z,6.94
2019-03-31T18:58:28.556Z,6.89
2019-03-31T19:01:03.004Z,6.81
2019-03-31T19:03:47.326Z,6.72
2019-03-31T19:06:24.429Z,6.61
2019-03-31T19:08:58.511Z,6.51
2019-03-31T19:11:38.151Z,6.40
2019-03-31T19:14:15.806Z,6.32
2019-03-31T19:16:50.127Z,6.23
2019-03-31T19:19:29.161Z,6.18
2019-03-31T19:22:06.755Z,6.16
2019-03-31T19:24:46.028Z,6.09
2019-03-31T19:27:19.946Z,6.02
2019-03-31T19:30:04.695Z,5.95
2019-03-31T19:32:39.903Z,5.90
2019-03-31T19:35:14.146Z,5.83
2019-03-31T19:37:48.283Z,5.75
2019-03-31T19:40:24.901Z,5.70
2019-03-31T19:42:57.301Z,5.64
2019-03-31T19:45:46.197Z,5.55
2019-03-31T19:48:36.666Z,5.53
2019-03-31T19:51:18.489Z,5.46
2019-03-31T19:53:55.951Z,5.40
2019-03-31T19:56:28.371Z,5.32
2019-03-31T19:59:17.686Z,5.29
2019-03-31T20:01:51.796Z,5.28
2019-03-31T20:04:42.106Z,5.25
2019-03-31T20:07:17.211Z,5.17
2019-03-31T20:09:54.016Z,5.10
2019-03-31T20:12:45.471Z,5.07
2019-03-31T20:15:33.355Z,4.99
2019-03-31T20:18:07.617Z,4.94
2019-03-31T20:20:44.769Z,4.87
2019-03-31T20:23:30.761Z,4.81
2019-03-31T20:26:21.021Z,4.72
2019-03-31T20:28:57.901Z,4.67
2019-03-31T20:31:35.516Z,4.60
2019-03-31T20:34:15.781Z,4.53
2019-03-31T20:36:53.306Z,4.44
2019-03-31T20:39:56.117Z,4.35
2019-03-31T20:42:21.253Z,4.27
2019-03-31T20:44:54.136Z,4.20
2019-03-31T20:47:27.063Z,4.12
2019-03-31T20:49:59.616Z,4.04
2019-03-31T20:52:32.201Z,3.97
2019-03-31T20:55:15.581Z,3.91
2019-03-31T20:57:39.511Z,3.83
2019-03-31T21:00:12.021Z,3.73
2019-03-31T21:02:44.847Z,3.66
2019-03-31T21:05:17.506Z,3.62
2019-03-31T21:07:49.961Z,3.56
2019-03-31T21:10:22.356Z,3.50
2019-03-31T21:12:54.742Z,3.42
2019-03-31T21:15:27.421Z,3.39
2019-03-31T21:17:59.841Z,3.33
2019-03-31T21:20:32.606Z,3.28
2019-03-31T21:23:04.906Z,3.23
2019-03-31T21:25:37.446Z,3.19
2019-03-31T21:28:09.846Z,3.14
2019-03-31T21:30:42.366Z,3.08
2019-03-31T21:33:14.831Z,3.03
2019-03-31T21:35:48.678Z,2.97
2019-03-31T21:38:21.361Z,2.92
2019-03-31T21:40:53.731Z,2.87
2019-03-31T21:43:26.276Z,2.87
2019-03-31T21:45:59.126Z,2.85
2019-03-31T21:48:31.546Z,2.81
2019-03-31T21:51:04.176Z,2.78
2019-03-31T21:53:36.503Z,2.74
2019-03-31T21:56:09.776Z,2.73
2019-03-31T21:58:42.147Z,2.72
2019-03-31T22:01:14.751Z,2.68
2019-03-31T22:03:47.676Z,2.65
2019-03-31T22:06:20.333Z,2.65
2019-03-31T22:08:53.276Z,2.64
2019-03-31T22:11:26.051Z,2.60
2019-03-31T22:13:58.416Z,2.56
2019-03-31T22:16:30.777Z,2.50
2019-03-31T22:19:03.260Z,2.44
2019-03-31T22:21:35.846Z,2.41
2019-03-31T22:24:08.606Z,2.36
2019-03-31T22:26:41.071Z,2.34
2019-03-31T22:29:13.451Z,2.29
2019-03-31T22:31:46.415Z,2.25
2019-03-31T22:34:18.821Z,2.22
2019-03-31T22:36:51.376Z,2.21
2019-03-31T22:39:23.821Z,2.19
2019-03-31T22:41:56.316Z,2.15
2019-03-31T22:44:28.791Z,2.12
2019-03-31T22:47:01.335Z,2.09
2019-03-31T22:49:33.556Z,2.06
2019-03-31T22:52:05.812Z,2.02
2019-03-31T22:54:38.011Z,1.98
2019-03-31T22:57:10.487Z,1.91
2019-03-31T22:59:43.181Z,1.85
2019-03-31T23:02:15.815Z,1.79
2019-03-31T23:04:48.526Z,1.75
2019-03-31T23:07:20.946Z,1.73
2019-03-31T23:09:53.386Z,1.74
2019-03-31T23:12:25.841Z,1.73
2019-03-31T23:14:58.307Z,1.70
2019-03-31T23:17:30.571Z,1.64
2019-03-31T23:20:03.042Z,1.63
2019-03-31T23:22:35.321Z,1.58
2019-03-31T23:25:08.096Z,1.56
2019-03-31T23:27:40.396Z,1.55
2019-03-31T23:30:13.226Z,1.52
2019-03-31T23:32:45.751Z,1.49
2019-03-31T23:35:18.311Z,1.44
2019-03-31T23:37:50.921Z,1.40
2019-03-31T23:40:23.376Z,1.37
2019-03-31T23:42:55.968Z,1.34
2019-03-31T23:45:28.071Z,1.32
2019-03-31T23:48:00.322Z,1.31
2019-03-31T23:50:32.566Z,1.28
2019-03-31T23:53:05.011Z,1.27
2019-03-31T23:55:37.569Z,1.24
2019-03-31T23:58:09.987Z,1.19
